sensor_id;sensor_type;location;lat;lon;timestamp;temperature;humidity
52743;DHT22;55583;53.012;6.556;2023-03-13T13:04:22;15.50;74.80
52743;DHT22;55583;53.012;6.556;2023-03-13T13:07:23;18.40;65.70
52743;DHT22;55583;53.012;6.556;2023-03-13T13:13:15;18.90;64.60
52743;DHT22;55583;53.012;6.556;2023-03-13T13:15:27;18.80;65.10
52743;DHT22;55583;53.012;6.556;2023-03-13T13:18:23;18.80;64.10
52743;DHT22;55583;53.012;6.556;2023-03-13T13:20:43;18.80;64.30
52743;DHT22;55583;53.012;6.556;2023-03-13T13:23:24;18.60;64.80
52743;DHT22;55583;53.012;6.556;2023-03-13T13:25:51;18.70;63.40
52743;DHT22;55583;53.012;6.556;2023-03-13T13:30:50;19.00;64.00
52743;DHT22;55583;53.012;6.556;2023-03-13T13:35:47;19.00;63.20
52743;DHT22;55583;53.012;6.556;2023-03-13T13:38:32;18.90;62.90
52743;DHT22;55583;53.012;6.556;2023-03-13T13:43:43;18.50;63.40
52743;DHT22;55583;53.012;6.556;2023-03-13T13:46:32;18.90;63.80
52743;DHT22;55583;53.012;6.556;2023-03-13T13:51:31;19.00;63.10
52743;DHT22;55583;53.012;6.556;2023-03-13T13:54:01;18.80;63.10
52743;DHT22;55583;53.012;6.556;2023-03-13T13:58:59;18.80;63.90
52743;DHT22;55583;53.012;6.556;2023-03-13T14:01:28;18.80;63.60
52743;DHT22;55583;53.012;6.556;2023-03-13T14:04:10;18.40;63.50
52743;DHT22;55583;53.012;6.556;2023-03-13T14:06:38;18.20;64.30
52743;DHT22;55583;53.012;6.556;2023-03-13T14:12:27;18.10;65.00
52743;DHT22;55583;53.012;6.556;2023-03-13T14:17:52;18.30;62.60
52743;DHT22;55583;53.012;6.556;2023-03-13T14:22:52;18.20;62.90
52743;DHT22;55583;53.012;6.556;2023-03-13T14:25:23;18.20;62.30
52743;DHT22;55583;53.012;6.556;2023-03-13T14:27:51;18.20;62.30
52743;DHT22;55583;53.012;6.556;2023-03-13T14:30:18;18.10;62.80
52743;DHT22;55583;53.012;6.556;2023-03-13T14:32:44;18.10;63.20
52743;DHT22;55583;53.012;6.556;2023-03-13T14:35:13;17.90;63.10
52743;DHT22;55583;53.012;6.556;2023-03-13T14:37:42;17.70;62.70
52743;DHT22;55583;53.012;6.556;2023-03-13T14:42:42;17.40;63.20
52743;DHT22;55583;53.012;6.556;2023-03-13T14:45:30;17.40;63.20
52743;DHT22;55583;53.012;6.556;2023-03-13T14:48:02;17.60;62.80
52743;DHT22;55583;53.012;6.556;2023-03-13T14:50:28;17.50;62.70
52743;DHT22;55583;53.012;6.556;2023-03-13T14:53:18;17.40;62.90
52743;DHT22;55583;53.012;6.556;2023-03-13T14:55:42;17.30;63.10
52743;DHT22;55583;53.012;6.556;2023-03-13T14:58:28;17.40;63.00
52743;DHT22;55583;53.012;6.556;2023-03-13T15:00:55;17.60;62.60
52743;DHT22;55583;53.012;6.556;2023-03-13T15:03:28;17.60;62.30
52743;DHT22;55583;53.012;6.556;2023-03-13T15:12:01;16.80;64.30
52743;DHT22;55583;53.012;6.556;2023-03-13T15:14:34;16.60;64.70
52743;DHT22;55583;53.012;6.556;2023-03-13T15:17:00;16.40;64.60
52743;DHT22;55583;53.012;6.556;2023-03-13T15:19:26;16.30;65.40
52743;DHT22;55583;53.012;6.556;2023-03-13T15:21:51;16.10;65.70
52743;DHT22;55583;53.012;6.556;2023-03-13T15:24:17;16.00;66.30
52743;DHT22;55583;53.012;6.556;2023-03-13T15:26:43;16.10;66.40
52743;DHT22;55583;53.012;6.556;2023-03-13T15:29:12;15.90;66.40
52743;DHT22;55583;53.012;6.556;2023-03-13T15:31:38;15.70;66.90
52743;DHT22;55583;53.012;6.556;2023-03-13T15:34:08;15.50;67.50
52743;DHT22;55583;53.012;6.556;2023-03-13T15:36:35;15.50;67.50
52743;DHT22;55583;53.012;6.556;2023-03-13T15:39:01;15.50;67.20
52743;DHT22;55583;53.012;6.556;2023-03-13T15:41:26;15.50;66.80
52743;DHT22;55583;53.012;6.556;2023-03-13T15:43:52;15.70;67.20
52743;DHT22;55583;53.012;6.556;2023-03-13T15:46:20;15.70;66.60
52743;DHT22;55583;53.012;6.556;2023-03-13T15:48:46;15.70;67.10
52743;DHT22;55583;53.012;6.556;2023-03-13T15:51:14;15.80;66.40
52743;DHT22;55583;53.012;6.556;2023-03-13T15:53:40;15.90;65.90
52743;DHT22;55583;53.012;6.556;2023-03-13T15:56:26;16.10;65.90
52743;DHT22;55583;53.012;6.556;2023-03-13T15:58:54;16.20;65.30
52743;DHT22;55583;53.012;6.556;2023-03-13T16:01:20;16.20;65.20
52743;DHT22;55583;53.012;6.556;2023-03-13T16:03:47;16.20;64.80
52743;DHT22;55583;53.012;6.556;2023-03-13T16:08:39;16.00;64.90
52743;DHT22;55583;53.012;6.556;2023-03-13T16:11:05;15.90;65.30
52743;DHT22;55583;53.012;6.556;2023-03-13T16:13:30;15.80;65.40
52743;DHT22;55583;53.012;6.556;2023-03-13T16:15:56;15.70;65.30
52743;DHT22;55583;53.012;6.556;2023-03-13T16:18:23;15.60;65.50
52743;DHT22;55583;53.012;6.556;2023-03-13T16:20:51;15.70;65.80
52743;DHT22;55583;53.012;6.556;2023-03-13T16:23:17;15.40;66.10
52743;DHT22;55583;53.012;6.556;2023-03-13T16:25:44;15.30;65.90
52743;DHT22;55583;53.012;6.556;2023-03-13T16:28:12;15.20;66.30
52743;DHT22;55583;53.012;6.556;2023-03-13T16:30:38;15.10;66.70
52743;DHT22;55583;53.012;6.556;2023-03-13T16:33:06;15.00;67.20
52743;DHT22;55583;53.012;6.556;2023-03-13T16:35:32;15.00;67.30
52743;DHT22;55583;53.012;6.556;2023-03-13T16:37:58;14.90;67.50
52743;DHT22;55583;53.012;6.556;2023-03-13T16:40:27;14.80;67.20
52743;DHT22;55583;53.012;6.556;2023-03-13T16:42:53;14.60;67.80
52743;DHT22;55583;53.012;6.556;2023-03-13T16:45:19;14.50;68.10
52743;DHT22;55583;53.012;6.556;2023-03-13T16:47:45;14.50;68.40
52743;DHT22;55583;53.012;6.556;2023-03-13T16:50:31;14.30;68.60
52743;DHT22;55583;53.012;6.556;2023-03-13T16:52:57;14.20;69.20
52743;DHT22;55583;53.012;6.556;2023-03-13T16:55:24;14.00;69.20
52743;DHT22;55583;53.012;6.556;2023-03-13T16:57:57;13.80;69.50
52743;DHT22;55583;53.012;6.556;2023-03-13T17:00:24;13.70;69.80
52743;DHT22;55583;53.012;6.556;2023-03-13T17:02:50;13.50;70.00
52743;DHT22;55583;53.012;6.556;2023-03-13T17:05:16;13.40;70.40
52743;DHT22;55583;53.012;6.556;2023-03-13T17:07:43;13.30;70.60
52743;DHT22;55583;53.012;6.556;2023-03-13T17:10:19;13.20;70.90
52743;DHT22;55583;53.012;6.556;2023-03-13T17:12:45;13.20;71.40
52743;DHT22;55583;53.012;6.556;2023-03-13T17:15:11;13.10;71.10
52743;DHT22;55583;53.012;6.556;2023-03-13T17:17:37;13.00;71.50
52743;DHT22;55583;53.012;6.556;2023-03-13T17:20:03;12.90;71.90
52743;DHT22;55583;53.012;6.556;2023-03-13T17:22:34;12.80;72.20
52743;DHT22;55583;53.012;6.556;2023-03-13T17:25:00;12.80;72.30
52743;DHT22;55583;53.012;6.556;2023-03-13T17:27:26;12.70;72.50
52743;DHT22;55583;53.012;6.556;2023-03-13T17:29:51;12.60;72.70
52743;DHT22;55583;53.012;6.556;2023-03-13T17:32:17;12.60;73.00
52743;DHT22;55583;53.012;6.556;2023-03-13T17:34:42;12.50;73.20
52743;DHT22;55583;53.012;6.556;2023-03-13T17:37:17;12.60;73.40
52743;DHT22;55583;53.012;6.556;2023-03-13T17:39:43;12.40;73.80
52743;DHT22;55583;53.012;6.556;2023-03-13T17:42:09;12.40;73.70
52743;DHT22;55583;53.012;6.556;2023-03-13T17:44:35;12.30;74.10
52743;DHT22;55583;53.012;6.556;2023-03-13T17:47:08;12.50;74.40
52743;DHT22;55583;53.012;6.556;2023-03-13T17:49:35;12.50;74.40
52743;DHT22;55583;53.012;6.556;2023-03-13T17:52:01;12.10;74.40
52743;DHT22;55583;53.012;6.556;2023-03-13T17:54:26;12.30;74.80
52743;DHT22;55583;53.012;6.556;2023-03-13T17:56:52;12.10;75.00
52743;DHT22;55583;53.012;6.556;2023-03-13T17:59:18;12.00;75.30
52743;DHT22;55583;53.012;6.556;2023-03-13T18:01:44;12.00;75.50
52743;DHT22;55583;53.012;6.556;2023-03-13T18:04:10;12.10;75.70
52743;DHT22;55583;53.012;6.556;2023-03-13T18:06:38;11.90;75.90
52743;DHT22;55583;53.012;6.556;2023-03-13T18:09:06;11.90;76.10
52743;DHT22;55583;53.012;6.556;2023-03-13T18:11:37;11.80;76.30
52743;DHT22;55583;53.012;6.556;2023-03-13T18:14:04;11.90;76.60
52743;DHT22;55583;53.012;6.556;2023-03-13T18:16:32;11.80;76.60
52743;DHT22;55583;53.012;6.556;2023-03-13T18:19:24;11.80;77.00
52743;DHT22;55583;53.012;6.556;2023-03-13T18:21:52;11.70;77.80
52743;DHT22;55583;53.012;6.556;2023-03-13T18:24:19;11.90;77.50
52743;DHT22;55583;53.012;6.556;2023-03-13T18:26:46;11.60;77.60
52743;DHT22;55583;53.012;6.556;2023-03-13T18:29:18;11.60;77.80
52743;DHT22;55583;53.012;6.556;2023-03-13T18:31:51;12.00;78.40
52743;DHT22;55583;53.012;6.556;2023-03-13T18:34:19;11.50;78.10
52743;DHT22;55583;53.012;6.556;2023-03-13T18:36:45;11.80;78.50
52743;DHT22;55583;53.012;6.556;2023-03-13T18:39:15;11.40;78.60
52743;DHT22;55583;53.012;6.556;2023-03-13T18:41:46;11.30;78.70
52743;DHT22;55583;53.012;6.556;2023-03-13T18:44:12;11.30;78.90
52743;DHT22;55583;53.012;6.556;2023-03-13T18:46:43;11.20;79.30
52743;DHT22;55583;53.012;6.556;2023-03-13T18:49:14;11.20;79.60
52743;DHT22;55583;53.012;6.556;2023-03-13T18:51:46;11.20;79.70
52743;DHT22;55583;53.012;6.556;2023-03-13T18:54:13;11.20;79.80
52743;DHT22;55583;53.012;6.556;2023-03-13T18:56:39;11.20;79.80
52743;DHT22;55583;53.012;6.556;2023-03-13T18:59:11;11.20;79.90
52743;DHT22;55583;53.012;6.556;2023-03-13T19:01:37;11.20;80.20
52743;DHT22;55583;53.012;6.556;2023-03-13T19:04:02;11.10;80.10
52743;DHT22;55583;53.012;6.556;2023-03-13T19:06:33;11.10;80.50
52743;DHT22;55583;53.012;6.556;2023-03-13T19:09:14;11.00;81.30
52743;DHT22;55583;53.012;6.556;2023-03-13T19:11:41;11.70;82.10
52743;DHT22;55583;53.012;6.556;2023-03-13T19:14:08;11.00;81.30
52743;DHT22;55583;53.012;6.556;2023-03-13T19:16:46;11.00;81.60
52743;DHT22;55583;53.012;6.556;2023-03-13T19:19:14;11.40;82.10
52743;DHT22;55583;53.012;6.556;2023-03-13T19:21:41;10.90;82.20
52743;DHT22;55583;53.012;6.556;2023-03-13T19:24:07;10.80;82.40
52743;DHT22;55583;53.012;6.556;2023-03-13T19:26:44;10.80;82.90
52743;DHT22;55583;53.012;6.556;2023-03-13T19:29:18;10.70;83.40
52743;DHT22;55583;53.012;6.556;2023-03-13T19:31:44;10.60;83.90
52743;DHT22;55583;53.012;6.556;2023-03-13T19:34:10;10.60;84.50
52743;DHT22;55583;53.012;6.556;2023-03-13T19:36:38;10.50;85.30
52743;DHT22;55583;53.012;6.556;2023-03-13T19:39:12;10.50;85.80
52743;DHT22;55583;53.012;6.556;2023-03-13T19:41:38;10.40;86.60
52743;DHT22;55583;53.012;6.556;2023-03-13T19:44:03;10.30;86.60
52743;DHT22;55583;53.012;6.556;2023-03-13T19:46:29;10.30;87.90
52743;DHT22;55583;53.012;6.556;2023-03-13T19:48:59;10.30;88.70
52743;DHT22;55583;53.012;6.556;2023-03-13T19:51:26;10.30;89.20
52743;DHT22;55583;53.012;6.556;2023-03-13T19:53:53;10.50;89.30
52743;DHT22;55583;53.012;6.556;2023-03-13T19:56:26;10.20;89.80
52743;DHT22;55583;53.012;6.556;2023-03-13T19:58:56;10.20;90.00
52743;DHT22;55583;53.012;6.556;2023-03-13T20:01:23;10.20;91.00
52743;DHT22;55583;53.012;6.556;2023-03-13T20:03:48;10.20;90.30
52743;DHT22;55583;53.012;6.556;2023-03-13T20:06:19;10.10;90.50
52743;DHT22;55583;53.012;6.556;2023-03-13T20:08:45;10.10;90.50
52743;DHT22;55583;53.012;6.556;2023-03-13T20:11:12;10.00;91.10
52743;DHT22;55583;53.012;6.556;2023-03-13T20:13:39;10.00;91.00
52743;DHT22;55583;53.012;6.556;2023-03-13T20:16:05;9.90;91.90
52743;DHT22;55583;53.012;6.556;2023-03-13T20:18:31;9.80;92.50
52743;DHT22;55583;53.012;6.556;2023-03-13T20:20:57;9.80;93.30
52743;DHT22;55583;53.012;6.556;2023-03-13T20:23:23;9.80;93.60
52743;DHT22;55583;53.012;6.556;2023-03-13T20:25:49;10.00;94.20
52743;DHT22;55583;53.012;6.556;2023-03-13T20:28:15;9.80;94.20
52743;DHT22;55583;53.012;6.556;2023-03-13T20:30:42;9.80;94.50
52743;DHT22;55583;53.012;6.556;2023-03-13T20:33:11;9.90;95.30
52743;DHT22;55583;53.012;6.556;2023-03-13T20:35:38;10.10;96.60
52743;DHT22;55583;53.012;6.556;2023-03-13T20:38:04;9.60;97.10
52743;DHT22;55583;53.012;6.556;2023-03-13T20:40:34;9.80;96.90
52743;DHT22;55583;53.012;6.556;2023-03-13T20:43:00;9.80;97.30
52743;DHT22;55583;53.012;6.556;2023-03-13T20:45:29;9.70;97.60
52743;DHT22;55583;53.012;6.556;2023-03-13T20:47:56;9.70;98.20
52743;DHT22;55583;53.012;6.556;2023-03-13T20:50:22;9.70;98.60
52743;DHT22;55583;53.012;6.556;2023-03-13T20:52:47;9.70;98.80
52743;DHT22;55583;53.012;6.556;2023-03-13T20:55:14;9.70;98.70
52743;DHT22;55583;53.012;6.556;2023-03-13T20:57:40;9.70;99.70
52743;DHT22;55583;53.012;6.556;2023-03-13T21:00:06;9.60;99.80
52743;DHT22;55583;53.012;6.556;2023-03-13T21:02:32;9.50;99.70
52743;DHT22;55583;53.012;6.556;2023-03-13T21:04:58;9.50;99.90
52743;DHT22;55583;53.012;6.556;2023-03-13T21:07:24;9.50;99.90
52743;DHT22;55583;53.012;6.556;2023-03-13T21:09:51;9.50;99.90
52743;DHT22;55583;53.012;6.556;2023-03-13T21:12:16;9.50;99.90
52743;DHT22;55583;53.012;6.556;2023-03-13T21:14:42;9.50;99.90
52743;DHT22;55583;53.012;6.556;2023-03-13T21:17:08;9.30;99.90
52743;DHT22;55583;53.012;6.556;2023-03-13T21:19:37;9.30;99.90
52743;DHT22;55583;53.012;6.556;2023-03-13T21:22:03;9.30;99.90
52743;DHT22;55583;53.012;6.556;2023-03-13T21:24:29;9.50;99.90
52743;DHT22;55583;53.012;6.556;2023-03-13T21:26:54;9.60;99.90
52743;DHT22;55583;53.012;6.556;2023-03-13T21:29:20;9.10;99.90
52743;DHT22;55583;53.012;6.556;2023-03-13T21:31:46;9.00;99.90
52743;DHT22;55583;53.012;6.556;2023-03-13T21:34:11;9.00;99.90
52743;DHT22;55583;53.012;6.556;2023-03-13T21:36:37;9.00;99.90
52743;DHT22;55583;53.012;6.556;2023-03-13T21:39:03;9.00;99.90
52743;DHT22;55583;53.012;6.556;2023-03-13T21:41:31;9.00;99.90
52743;DHT22;55583;53.012;6.556;2023-03-13T21:44:02;9.10;99.90
52743;DHT22;55583;53.012;6.556;2023-03-13T21:46:28;8.90;99.90
52743;DHT22;55583;53.012;6.556;2023-03-13T21:49:00;8.90;99.90
52743;DHT22;55583;53.012;6.556;2023-03-13T21:51:26;8.80;99.90
52743;DHT22;55583;53.012;6.556;2023-03-13T21:53:52;8.80;99.90
52743;DHT22;55583;53.012;6.556;2023-03-13T21:56:18;8.80;99.90
52743;DHT22;55583;53.012;6.556;2023-03-13T21:58:45;8.80;99.90
52743;DHT22;55583;53.012;6.556;2023-03-13T22:01:12;8.80;99.90
52743;DHT22;55583;53.012;6.556;2023-03-13T22:03:38;8.80;99.90
52743;DHT22;55583;53.012;6.556;2023-03-13T22:06:13;8.80;99.90
52743;DHT22;55583;53.012;6.556;2023-03-13T22:08:39;8.80;99.90
52743;DHT22;55583;53.012;6.556;2023-03-13T22:11:05;8.70;99.90
52743;DHT22;55583;53.012;6.556;2023-03-13T22:13:31;8.80;99.90
52743;DHT22;55583;53.012;6.556;2023-03-13T22:15:57;8.80;99.90
52743;DHT22;55583;53.012;6.556;2023-03-13T22:18:23;8.80;99.90
52743;DHT22;55583;53.012;6.556;2023-03-13T22:20:48;8.70;99.90
52743;DHT22;55583;53.012;6.556;2023-03-13T22:23:14;8.80;99.90
52743;DHT22;55583;53.012;6.556;2023-03-13T22:25:41;8.80;99.90
52743;DHT22;55583;53.012;6.556;2023-03-13T22:28:08;8.80;99.90
52743;DHT22;55583;53.012;6.556;2023-03-13T22:30:34;8.80;99.90
52743;DHT22;55583;53.012;6.556;2023-03-13T22:33:01;8.70;99.90
52743;DHT22;55583;53.012;6.556;2023-03-13T22:35:31;8.80;99.90
52743;DHT22;55583;53.012;6.556;2023-03-13T22:37:57;8.80;99.90
52743;DHT22;55583;53.012;6.556;2023-03-13T22:40:23;8.80;99.90
52743;DHT22;55583;53.012;6.556;2023-03-13T22:42:49;8.80;99.90
52743;DHT22;55583;53.012;6.556;2023-03-13T22:45:16;8.80;99.90
52743;DHT22;55583;53.012;6.556;2023-03-13T22:47:42;8.80;99.90
52743;DHT22;55583;53.012;6.556;2023-03-13T22:50:09;8.80;99.90
52743;DHT22;55583;53.012;6.556;2023-03-13T22:52:35;8.90;99.90
52743;DHT22;55583;53.012;6.556;2023-03-13T22:55:01;8.80;99.90
52743;DHT22;55583;53.012;6.556;2023-03-13T22:57:27;8.80;99.90
52743;DHT22;55583;53.012;6.556;2023-03-13T22:59:54;8.90;99.90
52743;DHT22;55583;53.012;6.556;2023-03-13T23:02:21;8.90;99.90
52743;DHT22;55583;53.012;6.556;2023-03-13T23:04:46;8.90;99.90
52743;DHT22;55583;53.012;6.556;2023-03-13T23:07:12;8.90;99.90
52743;DHT22;55583;53.012;6.556;2023-03-13T23:09:37;9.00;99.90
52743;DHT22;55583;53.012;6.556;2023-03-13T23:12:04;9.00;99.90
52743;DHT22;55583;53.012;6.556;2023-03-13T23:14:29;9.00;99.90
52743;DHT22;55583;53.012;6.556;2023-03-13T23:16:56;9.00;99.90
52743;DHT22;55583;53.012;6.556;2023-03-13T23:19:21;9.00;99.90
52743;DHT22;55583;53.012;6.556;2023-03-13T23:21:47;9.00;99.90
52743;DHT22;55583;53.012;6.556;2023-03-13T23:24:13;9.00;99.90
52743;DHT22;55583;53.012;6.556;2023-03-13T23:26:39;9.00;99.90
52743;DHT22;55583;53.012;6.556;2023-03-13T23:29:05;9.00;99.90
52743;DHT22;55583;53.012;6.556;2023-03-13T23:31:31;9.00;99.90
52743;DHT22;55583;53.012;6.556;2023-03-13T23:33:56;9.00;99.90
52743;DHT22;55583;53.012;6.556;2023-03-13T23:36:24;9.00;99.90
52743;DHT22;55583;53.012;6.556;2023-03-13T23:38:51;9.00;99.90
52743;DHT22;55583;53.012;6.556;2023-03-13T23:41:18;9.00;99.90
52743;DHT22;55583;53.012;6.556;2023-03-13T23:43:44;9.00;99.90
52743;DHT22;55583;53.012;6.556;2023-03-13T23:46:22;9.00;99.90
52743;DHT22;55583;53.012;6.556;2023-03-13T23:48:51;9.10;99.90
52743;DHT22;55583;53.012;6.556;2023-03-13T23:51:17;9.10;99.90
52743;DHT22;55583;53.012;6.556;2023-03-13T23:53:43;9.10;99.90
52743;DHT22;55583;53.012;6.556;2023-03-13T23:56:10;9.10;99.90
52743;DHT22;55583;53.012;6.556;2023-03-13T23:58:35;9.10;99.90
